sensor_id;sensor_type;location;lat;lon;timestamp;pressure;altitude;pressure_sealevel;temperature;humidity
49311;BME280;35177;45.900;5.946;2022-08-21T00:01:46;97664.13;;;15.39;100.00
49311;BME280;35177;45.900;5.946;2022-08-21T00:04:12;97660.75;;;15.34;100.00
49311;BME280;35177;45.900;5.946;2022-08-21T00:06:37;97661.19;;;15.36;100.00
49311;BME280;35177;45.900;5.946;2022-08-21T00:09:05;97668.41;;;15.24;100.00
49311;BME280;35177;45.900;5.946;2022-08-21T00:11:33;97663.53;;;15.34;100.00
49311;BME280;35177;45.900;5.946;2022-08-21T00:14:00;97661.91;;;15.33;100.00
49311;BME280;35177;45.900;5.946;2022-08-21T00:16:26;97664.44;;;15.25;100.00
49311;BME280;35177;45.900;5.946;2022-08-21T00:18:51;97667.34;;;15.17;100.00
49311;BME280;35177;45.900;5.946;2022-08-21T00:21:17;97663.56;;;15.13;100.00
49311;BME280;35177;45.900;5.946;2022-08-21T00:23:42;97676.38;;;15.14;100.00
49311;BME280;35177;45.900;5.946;2022-08-21T00:26:08;97673.34;;;15.06;100.00
49311;BME280;35177;45.900;5.946;2022-08-21T00:28:34;97672.47;;;14.93;100.00
49311;BME280;35177;45.900;5.946;2022-08-21T00:31:00;97677.16;;;15.02;100.00
49311;BME280;35177;45.900;5.946;2022-08-21T00:33:29;97677.22;;;14.93;100.00
49311;BME280;35177;45.900;5.946;2022-08-21T00:35:55;97673.06;;;14.99;100.00
49311;BME280;35177;45.900;5.946;2022-08-21T00:38:20;97671.97;;;15.13;100.00
49311;BME280;35177;45.900;5.946;2022-08-21T00:40:54;97676.38;;;15.14;100.00
49311;BME280;35177;45.900;5.946;2022-08-21T00:43:24;97669.06;;;14.88;100.00
49311;BME280;35177;45.900;5.946;2022-08-21T00:45:50;97675.22;;;14.81;100.00
49311;BME280;35177;45.900;5.946;2022-08-21T00:48:16;97668.47;;;14.82;100.00
49311;BME280;35177;45.900;5.946;2022-08-21T00:50:46;97669.63;;;14.81;100.00
49311;BME280;35177;45.900;5.946;2022-08-21T00:53:14;97663.63;;;14.70;100.00
49311;BME280;35177;45.900;5.946;2022-08-21T00:55:40;97664.78;;;14.69;100.00
49311;BME280;35177;45.900;5.946;2022-08-21T00:58:09;97664.31;;;14.67;100.00
49311;BME280;35177;45.900;5.946;2022-08-21T01:00:39;97655.97;;;14.58;100.00
49311;BME280;35177;45.900;5.946;2022-08-21T01:03:09;97660.88;;;14.61;100.00
49311;BME280;35177;45.900;5.946;2022-08-21T01:05:36;97656.44;;;14.60;100.00
49311;BME280;35177;45.900;5.946;2022-08-21T01:08:03;97659.91;;;14.57;100.00
49311;BME280;35177;45.900;5.946;2022-08-21T01:10:29;97656.19;;;14.53;100.00
49311;BME280;35177;45.900;5.946;2022-08-21T01:12:55;97653.31;;;14.62;100.00
49311;BME280;35177;45.900;5.946;2022-08-21T01:15:24;97651.38;;;14.54;100.00
49311;BME280;35177;45.900;5.946;2022-08-21T01:17:52;97655.03;;;14.54;100.00
49311;BME280;35177;45.900;5.946;2022-08-21T01:20:18;97659.31;;;14.52;100.00
49311;BME280;35177;45.900;5.946;2022-08-21T01:22:44;97665.63;;;14.40;100.00
49311;BME280;35177;45.900;5.946;2022-08-21T01:25:14;97661.97;;;14.48;100.00
49311;BME280;35177;45.900;5.946;2022-08-21T01:27:40;97654.94;;;14.42;100.00
49311;BME280;35177;45.900;5.946;2022-08-21T01:30:22;97650.53;;;14.41;100.00
49311;BME280;35177;45.900;5.946;2022-08-21T01:32:48;97656.84;;;14.50;100.00
49311;BME280;35177;45.900;5.946;2022-08-21T01:35:16;97650.38;;;14.58;100.00
49311;BME280;35177;45.900;5.946;2022-08-21T01:37:43;97659.69;;;14.71;100.00
49311;BME280;35177;45.900;5.946;2022-08-21T01:40:10;97652.50;;;14.83;100.00
49311;BME280;35177;45.900;5.946;2022-08-21T01:42:37;97656.97;;;14.54;100.00
49311;BME280;35177;45.900;5.946;2022-08-21T01:45:05;97650.09;;;14.51;100.00
49311;BME280;35177;45.900;5.946;2022-08-21T01:47:31;97646.03;;;14.49;100.00
49311;BME280;35177;45.900;5.946;2022-08-21T01:49:56;97647.88;;;14.66;100.00
49311;BME280;35177;45.900;5.946;2022-08-21T01:52:22;97634.25;;;14.64;100.00
49311;BME280;35177;45.900;5.946;2022-08-21T01:54:48;97635.13;;;14.56;100.00
49311;BME280;35177;45.900;5.946;2022-08-21T01:57:14;97634.72;;;14.45;100.00
49311;BME280;35177;45.900;5.946;2022-08-21T01:59:40;97634.03;;;14.48;100.00
49311;BME280;35177;45.900;5.946;2022-08-21T02:02:06;97633.75;;;14.41;100.00
49311;BME280;35177;45.900;5.946;2022-08-21T02:04:32;97637.28;;;14.50;100.00
49311;BME280;35177;45.900;5.946;2022-08-21T02:07:00;97643.22;;;14.49;100.00
49311;BME280;35177;45.900;5.946;2022-08-21T02:09:26;97630.41;;;14.48;100.00
49311;BME280;35177;45.900;5.946;2022-08-21T02:11:52;97632.75;;;14.45;100.00
49311;BME280;35177;45.900;5.946;2022-08-21T02:14:18;97630.63;;;14.42;100.00
49311;BME280;35177;45.900;5.946;2022-08-21T02:16:44;97633.13;;;14.35;100.00
49311;BME280;35177;45.900;5.946;2022-08-21T02:19:11;97627.22;;;14.37;100.00
49311;BME280;35177;45.900;5.946;2022-08-21T02:21:37;97627.97;;;14.25;100.00
49311;BME280;35177;45.900;5.946;2022-08-21T02:24:03;97636.19;;;14.21;100.00
49311;BME280;35177;45.900;5.946;2022-08-21T02:26:29;97630.91;;;14.28;100.00
49311;BME280;35177;45.900;5.946;2022-08-21T02:28:55;97624.16;;;14.29;100.00
49311;BME280;35177;45.900;5.946;2022-08-21T02:31:20;97627.97;;;14.46;100.00
49311;BME280;35177;45.900;5.946;2022-08-21T02:33:46;97622.19;;;14.30;100.00
49311;BME280;35177;45.900;5.946;2022-08-21T02:36:12;97620.00;;;14.36;100.00
49311;BME280;35177;45.900;5.946;2022-08-21T02:38:39;97626.88;;;14.38;100.00
49311;BME280;35177;45.900;5.946;2022-08-21T02:41:12;97624.16;;;14.51;100.00
49311;BME280;35177;45.900;5.946;2022-08-21T02:43:38;97623.75;;;14.40;100.00
49311;BME280;35177;45.900;5.946;2022-08-21T02:46:05;97621.97;;;14.35;100.00
49311;BME280;35177;45.900;5.946;2022-08-21T02:48:33;97623.47;;;14.33;100.00
49311;BME280;35177;45.900;5.946;2022-08-21T02:51:05;97616.53;;;14.39;100.00
49311;BME280;35177;45.900;5.946;2022-08-21T02:53:32;97616.94;;;14.28;100.00
49311;BME280;35177;45.900;5.946;2022-08-21T02:56:00;97615.16;;;14.24;100.00
49311;BME280;35177;45.900;5.946;2022-08-21T02:58:30;97613.38;;;13.98;100.00
49311;BME280;35177;45.900;5.946;2022-08-21T03:00:57;97616.44;;;14.05;100.00
49311;BME280;35177;45.900;5.946;2022-08-21T03:03:24;97620.44;;;13.95;100.00
49311;BME280;35177;45.900;5.946;2022-08-21T03:05:50;97623.31;;;14.08;100.00
49311;BME280;35177;45.900;5.946;2022-08-21T03:08:16;97625.63;;;14.06;100.00
49311;BME280;35177;45.900;5.946;2022-08-21T03:10:45;97620.88;;;14.06;100.00
49311;BME280;35177;45.900;5.946;2022-08-21T03:13:12;97621.16;;;14.13;100.00
49311;BME280;35177;45.900;5.946;2022-08-21T03:15:38;97609.28;;;14.17;100.00
49311;BME280;35177;45.900;5.946;2022-08-21T03:18:06;97622.72;;;14.23;100.00
49311;BME280;35177;45.900;5.946;2022-08-21T03:20:32;97617.31;;;14.18;100.00
49311;BME280;35177;45.900;5.946;2022-08-21T03:23:00;97620.31;;;14.13;100.00
49311;BME280;35177;45.900;5.946;2022-08-21T03:25:27;97618.16;;;14.19;100.00
49311;BME280;35177;45.900;5.946;2022-08-21T03:27:52;97621.28;;;14.17;100.00
49311;BME280;35177;45.900;5.946;2022-08-21T03:30:20;97619.44;;;14.21;100.00
49311;BME280;35177;45.900;5.946;2022-08-21T03:32:47;97614.34;;;14.23;100.00
49311;BME280;35177;45.900;5.946;2022-08-21T03:35:13;97612.22;;;14.20;100.00
49311;BME280;35177;45.900;5.946;2022-08-21T03:37:39;97612.94;;;14.08;100.00
49311;BME280;35177;45.900;5.946;2022-08-21T03:40:07;97605.38;;;13.88;100.00
49311;BME280;35177;45.900;5.946;2022-08-21T03:42:33;97604.13;;;13.76;100.00
49311;BME280;35177;45.900;5.946;2022-08-21T03:44:59;97603.66;;;13.74;100.00
49311;BME280;35177;45.900;5.946;2022-08-21T03:47:24;97602.31;;;13.80;100.00
49311;BME280;35177;45.900;5.946;2022-08-21T03:49:50;97603.13;;;13.81;100.00
49311;BME280;35177;45.900;5.946;2022-08-21T03:52:16;97608.88;;;13.76;100.00
49311;BME280;35177;45.900;5.946;2022-08-21T03:54:43;97599.97;;;13.82;100.00
49311;BME280;35177;45.900;5.946;2022-08-21T03:57:09;97605.28;;;13.75;100.00
49311;BME280;35177;45.900;5.946;2022-08-21T03:59:35;97601.06;;;13.69;100.00
49311;BME280;35177;45.900;5.946;2022-08-21T04:02:03;97599.13;;;13.61;100.00
49311;BME280;35177;45.900;5.946;2022-08-21T04:04:29;97597.09;;;13.70;100.00
49311;BME280;35177;45.900;5.946;2022-08-21T04:06:56;97602.41;;;13.63;100.00
49311;BME280;35177;45.900;5.946;2022-08-21T04:09:22;97606.03;;;13.55;100.00
49311;BME280;35177;45.900;5.946;2022-08-21T04:11:47;97611.03;;;13.40;100.00
49311;BME280;35177;45.900;5.946;2022-08-21T04:14:15;97608.63;;;13.21;100.00
49311;BME280;35177;45.900;5.946;2022-08-21T04:16:42;97605.09;;;13.33;100.00
49311;BME280;35177;45.900;5.946;2022-08-21T04:19:08;97605.63;;;13.26;100.00
49311;BME280;35177;45.900;5.946;2022-08-21T04:21:35;97606.25;;;13.32;100.00
49311;BME280;35177;45.900;5.946;2022-08-21T04:24:03;97607.94;;;13.24;100.00
49311;BME280;35177;45.900;5.946;2022-08-21T04:26:29;97599.44;;;13.12;100.00
49311;BME280;35177;45.900;5.946;2022-08-21T04:28:56;97609.78;;;13.11;100.00
49311;BME280;35177;45.900;5.946;2022-08-21T04:31:27;97613.50;;;13.24;100.00
49311;BME280;35177;45.900;5.946;2022-08-21T04:33:54;97607.91;;;13.33;100.00
49311;BME280;35177;45.900;5.946;2022-08-21T04:36:19;97615.16;;;13.25;100.00
49311;BME280;35177;45.900;5.946;2022-08-21T04:38:45;97610.31;;;13.52;100.00
49311;BME280;35177;45.900;5.946;2022-08-21T04:41:10;97608.88;;;13.37;100.00
49311;BME280;35177;45.900;5.946;2022-08-21T04:43:37;97611.06;;;13.23;100.00
49311;BME280;35177;45.900;5.946;2022-08-21T04:46:03;97612.84;;;13.18;100.00
49311;BME280;35177;45.900;5.946;2022-08-21T04:48:29;97624.47;;;13.29;100.00
49311;BME280;35177;45.900;5.946;2022-08-21T04:53:36;97623.38;;;13.13;100.00
49311;BME280;35177;45.900;5.946;2022-08-21T04:56:11;97626.50;;;13.11;100.00
49311;BME280;35177;45.900;5.946;2022-08-21T04:58:38;97624.34;;;13.17;100.00
49311;BME280;35177;45.900;5.946;2022-08-21T05:01:08;97618.63;;;13.13;100.00
49311;BME280;35177;45.900;5.946;2022-08-21T05:03:36;97610.44;;;13.08;100.00
49311;BME280;35177;45.900;5.946;2022-08-21T05:06:07;97623.69;;;13.20;100.00
49311;BME280;35177;45.900;5.946;2022-08-21T05:08:33;97621.03;;;13.32;100.00
49311;BME280;35177;45.900;5.946;2022-08-21T05:10:59;97620.97;;;13.50;100.00
49311;BME280;35177;45.900;5.946;2022-08-21T05:13:25;97621.09;;;13.62;100.00
49311;BME280;35177;45.900;5.946;2022-08-21T05:15:50;97626.13;;;13.78;100.00
49311;BME280;35177;45.900;5.946;2022-08-21T05:18:16;97628.94;;;13.99;100.00
49311;BME280;35177;45.900;5.946;2022-08-21T05:20:41;97625.69;;;14.18;100.00
49311;BME280;35177;45.900;5.946;2022-08-21T05:23:12;97629.97;;;14.16;100.00
49311;BME280;35177;45.900;5.946;2022-08-21T05:25:38;97628.97;;;14.41;100.00
49311;BME280;35177;45.900;5.946;2022-08-21T05:28:05;97634.25;;;14.43;100.00
49311;BME280;35177;45.900;5.946;2022-08-21T05:30:31;97623.25;;;14.38;100.00
49311;BME280;35177;45.900;5.946;2022-08-21T05:33:01;97626.59;;;14.52;100.00
49311;BME280;35177;45.900;5.946;2022-08-21T05:35:28;97637.28;;;14.50;100.00
49311;BME280;35177;45.900;5.946;2022-08-21T05:37:54;97634.78;;;14.36;100.00
49311;BME280;35177;45.900;5.946;2022-08-21T05:40:20;97631.25;;;14.48;100.00
49311;BME280;35177;45.900;5.946;2022-08-21T05:42:45;97636.19;;;14.63;100.00
49311;BME280;35177;45.900;5.946;2022-08-21T05:45:11;97635.13;;;14.77;100.00
49311;BME280;35177;45.900;5.946;2022-08-21T05:47:36;97635.00;;;14.73;100.00
49311;BME280;35177;45.900;5.946;2022-08-21T05:50:03;97626.59;;;14.52;100.00
49311;BME280;35177;45.900;5.946;2022-08-21T05:52:29;97627.97;;;14.46;100.00
49311;BME280;35177;45.900;5.946;2022-08-21T05:54:55;97629.81;;;14.42;100.00
49311;BME280;35177;45.900;5.946;2022-08-21T05:57:21;97629.97;;;14.45;100.00
49311;BME280;35177;45.900;5.946;2022-08-21T05:59:47;97635.91;;;14.65;100.00
49311;BME280;35177;45.900;5.946;2022-08-21T06:02:13;97629.97;;;14.67;100.00
49311;BME280;35177;45.900;5.946;2022-08-21T06:04:39;97630.69;;;14.97;100.00
49311;BME280;35177;45.900;5.946;2022-08-21T06:07:05;97623.28;;;15.14;100.00
49311;BME280;35177;45.900;5.946;2022-08-21T06:09:32;97625.22;;;15.47;100.00
49311;BME280;35177;45.900;5.946;2022-08-21T06:11:57;97624.59;;;15.29;100.00
49311;BME280;35177;45.900;5.946;2022-08-21T06:14:23;97626.69;;;15.19;100.00
49311;BME280;35177;45.900;5.946;2022-08-21T06:16:49;97617.59;;;15.22;100.00
49311;BME280;35177;45.900;5.946;2022-08-21T06:19:14;97608.91;;;15.03;100.00
49311;BME280;35177;45.900;5.946;2022-08-21T06:21:40;97616.56;;;15.27;100.00
49311;BME280;35177;45.900;5.946;2022-08-21T06:24:06;97621.13;;;15.32;100.00
49311;BME280;35177;45.900;5.946;2022-08-21T06:26:32;97619.16;;;15.45;100.00
49311;BME280;35177;45.900;5.946;2022-08-21T06:28:58;97614.13;;;15.38;100.00
49311;BME280;35177;45.900;5.946;2022-08-21T06:31:25;97624.97;;;15.39;100.00
49311;BME280;35177;45.900;5.946;2022-08-21T06:33:52;97619.16;;;15.45;100.00
49311;BME280;35177;45.900;5.946;2022-08-21T06:36:18;97620.59;;;15.76;100.00
49311;BME280;35177;45.900;5.946;2022-08-21T06:38:44;97612.91;;;15.85;100.00
49311;BME280;35177;45.900;5.946;2022-08-21T06:41:10;97608.47;;;15.96;100.00
49311;BME280;35177;45.900;5.946;2022-08-21T06:43:36;97607.06;;;16.02;100.00
49311;BME280;35177;45.900;5.946;2022-08-21T06:46:01;97608.72;;;15.91;100.00
49311;BME280;35177;45.900;5.946;2022-08-21T06:48:27;97611.47;;;16.16;100.00
49311;BME280;35177;45.900;5.946;2022-08-21T06:50:52;97605.31;;;16.22;100.00
49311;BME280;35177;45.900;5.946;2022-08-21T06:53:20;97612.41;;;16.32;100.00
49311;BME280;35177;45.900;5.946;2022-08-21T06:55:46;97602.69;;;16.42;100.00
49311;BME280;35177;45.900;5.946;2022-08-21T06:58:12;97609.09;;;16.43;100.00
49311;BME280;35177;45.900;5.946;2022-08-21T07:00:40;97608.75;;;16.44;100.00
49311;BME280;35177;45.900;5.946;2022-08-21T07:03:06;97604.47;;;16.63;100.00
49311;BME280;35177;45.900;5.946;2022-08-21T07:05:32;97610.91;;;16.63;100.00
49311;BME280;35177;45.900;5.946;2022-08-21T07:07:58;97609.63;;;16.61;100.00
49311;BME280;35177;45.900;5.946;2022-08-21T07:10:25;97609.22;;;16.75;100.00
49311;BME280;35177;45.900;5.946;2022-08-21T07:12:52;97609.84;;;16.68;100.00
49311;BME280;35177;45.900;5.946;2022-08-21T07:15:19;97611.88;;;16.83;100.00
49311;BME280;35177;45.900;5.946;2022-08-21T07:17:44;97605.09;;;16.84;100.00
49311;BME280;35177;45.900;5.946;2022-08-21T07:20:10;97609.34;;;17.07;100.00
49311;BME280;35177;45.900;5.946;2022-08-21T07:22:37;97603.16;;;17.29;100.00
49311;BME280;35177;45.900;5.946;2022-08-21T07:25:05;97609.78;;;17.37;100.00
49311;BME280;35177;45.900;5.946;2022-08-21T07:27:31;97603.00;;;17.38;100.00
49311;BME280;35177;45.900;5.946;2022-08-21T07:29:57;97601.91;;;17.59;100.00
49311;BME280;35177;45.900;5.946;2022-08-21T07:32:23;97609.97;;;17.60;100.00
49311;BME280;35177;45.900;5.946;2022-08-21T07:34:48;97608.16;;;17.52;100.00
49311;BME280;35177;45.900;5.946;2022-08-21T07:37:14;97607.53;;;17.59;100.00
49311;BME280;35177;45.900;5.946;2022-08-21T07:39:39;97610.44;;;17.62;100.00
49311;BME280;35177;45.900;5.946;2022-08-21T07:42:05;97607.88;;;17.57;100.00
49311;BME280;35177;45.900;5.946;2022-08-21T07:44:30;97610.50;;;17.66;100.00
49311;BME280;35177;45.900;5.946;2022-08-21T07:46:56;97611.94;;;17.76;100.00
49311;BME280;35177;45.900;5.946;2022-08-21T07:49:21;97610.78;;;17.77;100.00
49311;BME280;35177;45.900;5.946;2022-08-21T07:51:47;97609.31;;;17.83;100.00
49311;BME280;35177;45.900;5.946;2022-08-21T07:54:12;97603.69;;;18.15;100.00
49311;BME280;35177;45.900;5.946;2022-08-21T07:56:38;97598.22;;;18.22;100.00
49311;BME280;35177;45.900;5.946;2022-08-21T07:59:03;97595.91;;;18.08;100.00
49311;BME280;35177;45.900;5.946;2022-08-21T08:01:29;97592.53;;;18.19;100.00
49311;BME280;35177;45.900;5.946;2022-08-21T08:03:55;97588.47;;;18.16;100.00
49311;BME280;35177;45.900;5.946;2022-08-21T08:06:21;97587.53;;;18.28;100.00
49311;BME280;35177;45.900;5.946;2022-08-21T08:08:48;97585.19;;;18.30;100.00
49311;BME280;35177;45.900;5.946;2022-08-21T08:11:14;97575.34;;;18.59;100.00
49311;BME280;35177;45.900;5.946;2022-08-21T08:13:48;97571.50;;;18.87;100.00
49311;BME280;35177;45.900;5.946;2022-08-21T08:16:14;97583.06;;;19.02;100.00
49311;BME280;35177;45.900;5.946;2022-08-21T08:18:40;97585.94;;;18.86;100.00
49311;BME280;35177;45.900;5.946;2022-08-21T08:21:08;97575.56;;;18.70;100.00
49311;BME280;35177;45.900;5.946;2022-08-21T08:23:34;97579.72;;;18.96;100.00
49311;BME280;35177;45.900;5.946;2022-08-21T08:25:59;97576.63;;;19.24;100.00
49311;BME280;35177;45.900;5.946;2022-08-21T08:28:27;97573.28;;;19.15;100.00
49311;BME280;35177;45.900;5.946;2022-08-21T08:30:54;97569.22;;;19.13;100.00
49311;BME280;35177;45.900;5.946;2022-08-21T08:33:20;97572.97;;;19.43;100.00
49311;BME280;35177;45.900;5.946;2022-08-21T08:35:48;97574.94;;;19.66;100.00
49311;BME280;35177;45.900;5.946;2022-08-21T08:38:15;97567.41;;;19.47;100.00
49311;BME280;35177;45.900;5.946;2022-08-21T08:43:39;97558.31;;;19.34;100.00
49311;BME280;35177;45.900;5.946;2022-08-21T08:46:15;97554.38;;;19.39;100.00
49311;BME280;35177;45.900;5.946;2022-08-21T08:48:45;97551.75;;;19.50;100.00
49311;BME280;35177;45.900;5.946;2022-08-21T08:51:25;97543.19;;;19.66;100.00
49311;BME280;35177;45.900;5.946;2022-08-21T08:53:58;97526.56;;;20.41;100.00
49311;BME280;35177;45.900;5.946;2022-08-21T08:56:30;97524.78;;;20.26;100.00
49311;BME280;35177;45.900;5.946;2022-08-21T08:59:01;97521.22;;;20.32;100.00
49311;BME280;35177;45.900;5.946;2022-08-21T09:01:28;97526.72;;;20.21;100.00
49311;BME280;35177;45.900;5.946;2022-08-21T09:03:54;97522.84;;;20.33;100.00
49311;BME280;35177;45.900;5.946;2022-08-21T09:09:34;97520.75;;;20.91;100.00
49311;BME280;35177;45.900;5.946;2022-08-21T09:12:15;97505.34;;;21.23;100.00
49311;BME280;35177;45.900;5.946;2022-08-21T09:14:58;97507.19;;;21.49;100.00
49311;BME280;35177;45.900;5.946;2022-08-21T09:17:39;97504.81;;;21.55;100.00
49311;BME280;35177;45.900;5.946;2022-08-21T09:20:19;97507.38;;;21.67;100.00
49311;BME280;35177;45.900;5.946;2022-08-21T09:25:49;97502.59;;;22.45;100.00
49311;BME280;35177;45.900;5.946;2022-08-21T09:28:18;97504.75;;;22.84;100.00
49311;BME280;35177;45.900;5.946;2022-08-21T09:30:43;97510.53;;;23.17;100.00
49311;BME280;35177;45.900;5.946;2022-08-21T09:33:11;97509.31;;;23.32;100.00
49311;BME280;35177;45.900;5.946;2022-08-21T09:35:51;97506.09;;;23.73;100.00
49311;BME280;35177;45.900;5.946;2022-08-21T09:38:31;97497.19;;;23.86;100.00
49311;BME280;35177;45.900;5.946;2022-08-21T09:41:07;97502.03;;;24.03;100.00
49311;BME280;35177;45.900;5.946;2022-08-21T09:43:35;97492.25;;;24.26;100.00
49311;BME280;35177;45.900;5.946;2022-08-21T09:46:19;97498.38;;;23.23;100.00
49311;BME280;35177;45.900;5.946;2022-08-21T09:48:48;97488.63;;;24.18;100.00
49311;BME280;35177;45.900;5.946;2022-08-21T09:51:23;97485.22;;;24.70;100.00
49311;BME280;35177;45.900;5.946;2022-08-21T09:56:38;97482.38;;;25.30;100.00
49311;BME280;35177;45.900;5.946;2022-08-21T09:59:31;97482.34;;;25.41;100.00
49311;BME280;35177;45.900;5.946;2022-08-21T10:02:00;97475.84;;;25.44;100.00
49311;BME280;35177;45.900;5.946;2022-08-21T10:04:32;97471.56;;;25.11;100.00
49311;BME280;35177;45.900;5.946;2022-08-21T10:07:09;97479.41;;;24.92;100.00
49311;BME280;35177;45.900;5.946;2022-08-21T10:09:35;97478.22;;;25.49;100.00
49311;BME280;35177;45.900;5.946;2022-08-21T10:14:58;97462.69;;;25.61;100.00
49311;BME280;35177;45.900;5.946;2022-08-21T10:17:50;97461.91;;;26.37;100.00
49311;BME280;35177;45.900;5.946;2022-08-21T10:23:27;97464.78;;;26.34;95.25
49311;BME280;35177;45.900;5.946;2022-08-21T10:26:25;97463.75;;;26.86;92.24
49311;BME280;35177;45.900;5.946;2022-08-21T10:29:05;97454.16;;;26.07;97.80
49311;BME280;35177;45.900;5.946;2022-08-21T10:31:48;97448.81;;;26.43;94.30
49311;BME280;35177;45.900;5.946;2022-08-21T10:40:15;97453.75;;;26.39;86.26
49311;BME280;35177;45.900;5.946;2022-08-21T10:43:07;97450.22;;;26.93;84.17
49311;BME280;35177;45.900;5.946;2022-08-21T10:51:48;97447.31;;;27.52;83.80
49311;BME280;35177;45.900;5.946;2022-08-21T10:57:56;97444.13;;;27.70;79.48
49311;BME280;35177;45.900;5.946;2022-08-21T11:00:33;97434.16;;;27.31;79.11
49311;BME280;35177;45.900;5.946;2022-08-21T11:03:08;97425.38;;;27.21;81.51
49311;BME280;35177;45.900;5.946;2022-08-21T11:08:10;97417.94;;;27.28;79.49
49311;BME280;35177;45.900;5.946;2022-08-21T11:10:47;97419.44;;;27.36;81.43
49311;BME280;35177;45.900;5.946;2022-08-21T11:15:48;97411.63;;;27.16;79.35
49311;BME280;35177;45.900;5.946;2022-08-21T11:18:32;97410.53;;;26.79;79.48
49311;BME280;35177;45.900;5.946;2022-08-21T11:21:54;97407.38;;;27.01;75.52
49311;BME280;35177;45.900;5.946;2022-08-21T11:26:52;97413.59;;;27.90;73.29
49311;BME280;35177;45.900;5.946;2022-08-21T11:29:24;97400.41;;;27.77;70.42
49311;BME280;35177;45.900;5.946;2022-08-21T11:34:51;97398.09;;;27.92;71.65
49311;BME280;35177;45.900;5.946;2022-08-21T11:45:48;97396.44;;;28.14;62.34
49311;BME280;35177;45.900;5.946;2022-08-21T11:48:18;97389.84;;;28.17;53.11
49311;BME280;35177;45.900;5.946;2022-08-21T11:50:49;97378.56;;;28.50;58.23
49311;BME280;35177;45.900;5.946;2022-08-21T11:53:26;97381.75;;;28.73;62.68
49311;BME280;35177;45.900;5.946;2022-08-21T11:56:06;97388.50;;;28.02;59.40
49311;BME280;35177;45.900;5.946;2022-08-21T11:58:41;97383.72;;;27.75;60.75
49311;BME280;35177;45.900;5.946;2022-08-21T12:01:12;97384.81;;;28.05;60.79
49311;BME280;35177;45.900;5.946;2022-08-21T12:03:51;97377.88;;;28.63;59.03
49311;BME280;35177;45.900;5.946;2022-08-21T12:06:29;97380.00;;;28.59;53.85
49311;BME280;35177;45.900;5.946;2022-08-21T12:12:01;97373.09;;;28.76;52.28
49311;BME280;35177;45.900;5.946;2022-08-21T12:14:40;97373.41;;;28.62;51.39
49311;BME280;35177;45.900;5.946;2022-08-21T12:17:08;97370.47;;;28.65;46.30
49311;BME280;35177;45.900;5.946;2022-08-21T12:19:34;97365.97;;;28.28;41.37
49311;BME280;35177;45.900;5.946;2022-08-21T12:24:42;97366.16;;;28.77;49.25
49311;BME280;35177;45.900;5.946;2022-08-21T12:30:32;97365.38;;;28.93;38.90
49311;BME280;35177;45.900;5.946;2022-08-21T12:33:02;97365.06;;;29.04;39.52
49311;BME280;35177;45.900;5.946;2022-08-21T12:35:47;97357.84;;;28.83;36.83
49311;BME280;35177;45.900;5.946;2022-08-21T12:40:49;97363.34;;;28.37;39.96
49311;BME280;35177;45.900;5.946;2022-08-21T12:43:25;97353.66;;;28.71;37.95
49311;BME280;35177;45.900;5.946;2022-08-21T12:45:53;97365.16;;;28.47;49.31
49311;BME280;35177;45.900;5.946;2022-08-21T12:48:29;97358.59;;;28.30;50.22
49311;BME280;35177;45.900;5.946;2022-08-21T12:51:13;97358.72;;;28.43;45.38
49311;BME280;35177;45.900;5.946;2022-08-21T12:53:47;97360.19;;;28.51;41.69
49311;BME280;35177;45.900;5.946;2022-08-21T12:56:18;97357.50;;;28.24;45.22
49311;BME280;35177;45.900;5.946;2022-08-21T12:58:54;97354.72;;;28.00;48.56
49311;BME280;35177;45.900;5.946;2022-08-21T13:01:35;97348.84;;;27.87;48.04
49311;BME280;35177;45.900;5.946;2022-08-21T13:04:07;97344.81;;;27.65;53.77
49311;BME280;35177;45.900;5.946;2022-08-21T13:06:41;97335.31;;;27.71;52.35
49311;BME280;35177;45.900;5.946;2022-08-21T13:09:12;97337.84;;;28.10;50.92
49311;BME280;35177;45.900;5.946;2022-08-21T13:11:44;97340.25;;;28.11;54.87
49311;BME280;35177;45.900;5.946;2022-08-21T13:14:38;97333.78;;;27.67;50.60
49311;BME280;35177;45.900;5.946;2022-08-21T13:17:05;97332.94;;;27.46;56.84
49311;BME280;35177;45.900;5.946;2022-08-21T13:19:32;97326.09;;;27.64;51.73
49311;BME280;35177;45.900;5.946;2022-08-21T13:22:00;97323.78;;;27.99;53.63
49311;BME280;35177;45.900;5.946;2022-08-21T13:24:29;97326.09;;;28.24;59.57
49311;BME280;35177;45.900;5.946;2022-08-21T13:26:55;97328.53;;;28.26;58.52
49311;BME280;35177;45.900;5.946;2022-08-21T13:29:27;97327.03;;;28.37;54.19
49311;BME280;35177;45.900;5.946;2022-08-21T13:31:59;97328.72;;;27.95;46.38
49311;BME280;35177;45.900;5.946;2022-08-21T13:34:29;97329.16;;;27.53;48.70
49311;BME280;35177;45.900;5.946;2022-08-21T13:37:00;97325.69;;;27.85;56.59
49311;BME280;35177;45.900;5.946;2022-08-21T13:39:27;97325.00;;;27.98;51.51
49311;BME280;35177;45.900;5.946;2022-08-21T13:41:55;97319.78;;;28.33;48.94
49311;BME280;35177;45.900;5.946;2022-08-21T13:44:31;97319.38;;;28.34;56.72
49311;BME280;35177;45.900;5.946;2022-08-21T13:46:59;97324.50;;;28.03;57.44
49311;BME280;35177;45.900;5.946;2022-08-21T13:49:30;97314.28;;;28.05;56.08
49311;BME280;35177;45.900;5.946;2022-08-21T13:51:56;97309.22;;;27.73;52.71
49311;BME280;35177;45.900;5.946;2022-08-21T13:54:42;97299.13;;;27.88;59.70
49311;BME280;35177;45.900;5.946;2022-08-21T13:57:36;97298.09;;;27.99;48.63
49311;BME280;35177;45.900;5.946;2022-08-21T14:02:39;97291.66;;;27.31;57.35
49311;BME280;35177;45.900;5.946;2022-08-21T14:05:07;97292.69;;;27.64;58.54
49311;BME280;35177;45.900;5.946;2022-08-21T14:07:40;97299.25;;;27.81;57.45
49311;BME280;35177;45.900;5.946;2022-08-21T14:10:16;97295.03;;;27.69;57.97
49311;BME280;35177;45.900;5.946;2022-08-21T14:12:46;97295.69;;;27.33;51.54